createdAt,value
2022-12-18T00:02:23.177Z,92.60
2022-12-18T00:05:11.395Z,90.87
2022-12-18T00:10:48.083Z,91.42
2022-12-18T00:16:26.721Z,90.50
2022-12-18T00:19:16.068Z,90.23
2022-12-18T00:24:51.808Z,91.81
2022-12-18T00:30:25.099Z,93.28
2022-12-18T00:36:04.268Z,92.92
2022-12-18T00:45:14.371Z,91.98
2022-12-18T00:48:02.746Z,91.45
2022-12-18T00:53:41.862Z,91.80
2022-12-18T01:05:07.811Z,92.65
2022-12-18T01:10:44.495Z,94.09
2022-12-18T01:16:24.631Z,94.04
2022-12-18T01:21:54.859Z,94.36
2022-12-18T01:24:44.001Z,94.02
2022-12-18T01:27:37.029Z,92.77
2022-12-18T01:33:15.660Z,92.82
2022-12-18T01:38:54.881Z,91.05
2022-12-18T01:42:01.827Z,90.17
2022-12-18T01:44:57.546Z,90.46
2022-12-18T01:50:37.928Z,92.54
2022-12-18T01:53:27.824Z,93.58
2022-12-18T02:01:49.778Z,94.13
2022-12-18T02:07:29.798Z,94.40
2022-12-18T02:10:21.735Z,93.98
2022-12-18T02:16:04.838Z,93.19
2022-12-18T02:21:40.161Z,92.10
2022-12-18T02:27:15.720Z,91.85
2022-12-18T02:32:57.597Z,91.29
2022-12-18T02:38:29.711Z,91.85
2022-12-18T02:41:19.417Z,90.71
2022-12-18T02:46:57.516Z,90.60
2022-12-18T02:49:49.540Z,90.54
2022-12-18T02:55:36.694Z,88.43
2022-12-18T03:01:14.270Z,89.73
2022-12-18T03:06:55.679Z,90.35
2022-12-18T03:12:34.773Z,91.44
2022-12-18T03:18:17.246Z,90.26
2022-12-18T03:23:49.660Z,90.34
2022-12-18T03:26:38.842Z,90.98
2022-12-18T03:32:18.168Z,91.16
2022-12-18T03:35:09.239Z,91.76
2022-12-18T03:37:58.094Z,93.69
2022-12-18T03:40:57.046Z,94.71
2022-12-18T03:46:33.211Z,94.34
2022-12-18T03:52:11.802Z,93.55
2022-12-18T03:55:08.096Z,93.12
2022-12-18T03:57:57.110Z,92.32
2022-12-18T04:00:45.846Z,91.76
2022-12-18T04:03:36.506Z,92.26
2022-12-18T04:09:06.371Z,90.42
2022-12-18T04:14:41.875Z,91.29
2022-12-18T04:20:18.841Z,92.71
2022-12-18T04:25:49.434Z,90.72
2022-12-18T04:29:05.673Z,91.08
2022-12-18T04:45:56.906Z,93.07
2022-12-18T05:25:42.497Z,91.15
2022-12-18T05:31:10.251Z,90.33
2022-12-18T05:36:47.158Z,88.79
2022-12-18T05:42:23.529Z,88.28
2022-12-18T05:45:12.986Z,89.66
2022-12-18T05:48:02.491Z,90.19
2022-12-18T05:50:52.335Z,90.96
2022-12-18T05:56:25.048Z,92.25
2022-12-18T06:01:54.156Z,92.13
2022-12-18T06:04:44.619Z,88.90
2022-12-18T06:07:33.359Z,90.35
2022-12-18T06:10:21.901Z,91.49
2022-12-18T06:15:58.245Z,90.42
2022-12-18T06:21:34.448Z,91.19
2022-12-18T06:24:23.953Z,90.62
2022-12-18T06:29:53.847Z,89.96
2022-12-18T06:32:42.840Z,90.20
2022-12-18T06:35:32.061Z,88.45
2022-12-18T06:41:03.923Z,89.13
2022-12-18T06:43:58.110Z,88.99
2022-12-18T06:49:28.803Z,91.21
2022-12-18T06:54:57.653Z,88.88
2022-12-18T06:57:46.766Z,90.05
2022-12-18T07:06:02.250Z,91.40
2022-12-18T07:11:37.363Z,88.26
2022-12-18T07:14:25.471Z,88.70
2022-12-18T07:20:08.079Z,89.91
2022-12-18T07:25:40.691Z,91.34
2022-12-18T07:31:16.512Z,88.28
2022-12-18T07:39:34.366Z,87.17
2022-12-18T07:42:34.154Z,86.36
2022-12-18T07:48:08.243Z,87.33
2022-12-18T07:53:44.818Z,87.73
2022-12-18T07:59:15.014Z,88.39
2022-12-18T08:02:05.078Z,88.92
2022-12-18T08:07:37.112Z,87.78
2022-12-18T08:13:17.787Z,85.75
2022-12-18T08:18:46.386Z,86.49
2022-12-18T08:24:24.370Z,86.78
2022-12-18T08:30:03.984Z,86.81
2022-12-18T08:32:54.903Z,86.30
2022-12-18T08:38:30.373Z,85.72
2022-12-18T08:41:19.812Z,84.72
2022-12-18T08:44:31.263Z,84.34
2022-12-18T08:47:19.561Z,83.69
2022-12-18T08:52:49.554Z,84.13
2022-12-18T08:55:38.663Z,82.52
2022-12-18T08:58:27.412Z,82.92
2022-12-18T09:01:18.226Z,82.46
2022-12-18T09:06:56.124Z,82.49
2022-12-18T09:12:30.955Z,82.18
2022-12-18T09:23:29.263Z,82.20
2022-12-18T09:28:59.213Z,81.07
2022-12-18T09:31:47.911Z,80.70
2022-12-18T09:37:18.084Z,80.59
2022-12-18T09:42:58.257Z,79.44
2022-12-18T09:48:44.777Z,81.05
2022-12-18T09:54:21.460Z,80.99
2022-12-18T09:59:59.181Z,79.69
2022-12-18T10:08:19.686Z,78.70
2022-12-18T10:14:21.364Z,79.71
2022-12-18T10:32:23.445Z,77.91
2022-12-18T10:38:08.924Z,78.53
2022-12-18T10:43:43.927Z,75.96
2022-12-18T10:49:30.956Z,74.45
2022-12-18T10:55:04.316Z,75.75
2022-12-18T11:11:09.839Z,79.66
2022-12-18T11:17:24.927Z,82.22
2022-12-18T11:23:09.623Z,81.12
2022-12-18T11:28:53.030Z,79.59
2022-12-18T11:31:41.468Z,80.04
2022-12-18T11:37:20.781Z,78.50
2022-12-18T11:42:59.413Z,77.90
2022-12-18T11:48:42.713Z,79.22
2022-12-18T11:54:17.209Z,77.60
2022-12-18T12:02:47.653Z,78.62
2022-12-18T12:08:38.827Z,77.63
2022-12-18T12:14:30.549Z,79.97
2022-12-18T12:17:24.221Z,81.58
2022-12-18T12:23:04.330Z,80.00
2022-12-18T12:28:48.918Z,79.33
2022-12-18T12:34:24.765Z,78.87
2022-12-18T12:40:40.902Z,77.25
2022-12-18T12:48:41.379Z,78.72
2022-12-18T12:54:18.366Z,77.42
2022-12-18T12:59:55.458Z,77.06
2022-12-18T13:05:41.887Z,75.89
2022-12-18T13:08:35.962Z,76.47
2022-12-18T13:12:00.451Z,76.17
2022-12-18T13:18:06.155Z,76.54
2022-12-18T13:23:48.464Z,76.56
2022-12-18T13:29:44.503Z,76.36
2022-12-18T13:32:32.993Z,76.60
2022-12-18T13:38:55.732Z,76.47
2022-12-18T13:44:40.289Z,77.04
2022-12-18T13:50:21.831Z,77.35
2022-12-18T13:53:18.748Z,75.79
2022-12-18T14:01:49.879Z,76.86
2022-12-18T14:07:23.382Z,77.90
2022-12-18T14:13:08.183Z,78.12
2022-12-18T14:16:01.556Z,80.36
2022-12-18T14:21:40.664Z,80.36
2022-12-18T14:27:27.832Z,80.22
2022-12-18T14:33:29.965Z,79.49
2022-12-18T14:36:21.267Z,79.75
2022-12-18T14:39:14.603Z,82.38
2022-12-18T14:50:21.331Z,82.00
2022-12-18T14:58:56.805Z,83.73
2022-12-18T15:04:33.081Z,84.77
2022-12-18T15:10:16.943Z,85.39
2022-12-18T15:16:20.260Z,85.50
2022-12-18T15:19:12.104Z,85.93
2022-12-18T15:22:06.575Z,86.09
2022-12-18T15:30:34.081Z,85.80
2022-12-18T15:36:27.072Z,86.84
2022-12-18T15:42:30.117Z,88.48
2022-12-18T15:48:15.743Z,88.52
2022-12-18T15:54:05.878Z,89.27
2022-12-18T15:57:29.690Z,89.67
2022-12-18T16:03:07.691Z,89.88
2022-12-18T16:08:48.089Z,90.27
2022-12-18T16:14:24.718Z,90.95
2022-12-18T16:17:15.917Z,91.87
2022-12-18T16:23:10.702Z,92.30
2022-12-18T16:28:48.587Z,92.49
2022-12-18T16:34:27.736Z,93.18
2022-12-18T16:39:59.669Z,93.59
2022-12-18T16:45:37.642Z,92.94
2022-12-18T16:48:27.271Z,94.26
2022-12-18T16:51:20.341Z,95.18
2022-12-18T16:56:58.397Z,93.72
2022-12-18T17:02:36.540Z,94.79
2022-12-18T17:08:14.200Z,93.00
2022-12-18T17:13:49.109Z,94.51
2022-12-18T17:16:37.410Z,94.76
2022-12-18T17:22:11.986Z,95.52
2022-12-18T17:27:48.790Z,95.95
2022-12-18T17:33:26.974Z,96.41
2022-12-18T17:39:05.953Z,96.75
2022-12-18T17:44:37.840Z,95.06
2022-12-18T17:50:09.209Z,96.03
2022-12-18T17:52:58.548Z,96.09
2022-12-18T17:58:45.932Z,96.94
2022-12-18T18:04:23.913Z,99.19
2022-12-18T18:10:27.969Z,98.16
2022-12-18T18:16:03.905Z,98.21
2022-12-18T18:21:42.406Z,97.75
2022-12-18T18:27:38.694Z,97.57
2022-12-18T18:33:12.324Z,95.70
2022-12-18T18:38:48.497Z,96.42
2022-12-18T18:44:26.665Z,95.38
2022-12-18T18:50:07.052Z,93.27
2022-12-18T18:55:43.571Z,93.62
2022-12-18T18:58:32.142Z,94.85
2022-12-18T19:04:05.471Z,94.17
2022-12-18T19:09:40.386Z,95.73
2022-12-18T19:12:47.273Z,95.28
2022-12-18T19:15:36.084Z,95.48
2022-12-18T19:18:24.292Z,97.44
2022-12-18T19:23:54.514Z,95.75
2022-12-18T19:29:28.530Z,95.93
2022-12-18T19:35:05.288Z,94.45
2022-12-18T19:40:45.351Z,95.95
2022-12-18T19:43:35.775Z,95.83
2022-12-18T19:46:24.985Z,95.08
2022-12-18T19:52:02.511Z,94.66
2022-12-18T19:57:39.303Z,94.44
2022-12-18T20:03:19.889Z,94.73
2022-12-18T20:06:09.195Z,95.02
2022-12-18T20:11:46.419Z,93.77
2022-12-18T20:17:17.307Z,93.73
2022-12-18T20:23:01.957Z,92.59
2022-12-18T20:28:42.820Z,93.51
2022-12-18T20:36:52.237Z,93.79
2022-12-18T20:42:28.362Z,94.68
2022-12-18T20:48:07.957Z,94.25
2022-12-18T20:56:43.756Z,93.03
2022-12-18T21:02:22.825Z,94.03
2022-12-18T21:08:04.189Z,93.08
2022-12-18T21:13:42.827Z,92.75
2022-12-18T21:16:31.417Z,94.00
2022-12-18T21:24:43.084Z,93.79
2022-12-18T21:27:31.819Z,94.25
2022-12-18T21:30:20.905Z,94.71
2022-12-18T21:38:45.664Z,93.76
2022-12-18T21:41:53.024Z,93.56
2022-12-18T21:47:35.987Z,92.81
2022-12-18T21:53:11.370Z,93.09
2022-12-18T21:58:57.012Z,93.48
2022-12-18T22:01:38.841Z,93.87
2022-12-18T22:04:27.938Z,93.85
2022-12-18T22:07:16.910Z,93.66
2022-12-18T22:10:06.092Z,92.13
2022-12-18T22:15:43.295Z,93.73
2022-12-18T22:18:31.793Z,93.43
2022-12-18T22:24:16.025Z,95.00
2022-12-18T22:27:04.066Z,95.10
2022-12-18T22:32:40.541Z,94.94
2022-12-18T22:35:29.912Z,94.12
2022-12-18T22:40:57.528Z,93.47
2022-12-18T22:43:47.135Z,94.54
2022-12-18T22:46:37.955Z,93.87
2022-12-18T22:49:26.961Z,93.56
2022-12-18T22:52:15.418Z,94.29
2022-12-18T22:57:54.730Z,93.77
2022-12-18T23:03:24.021Z,93.31
2022-12-18T23:06:12.601Z,94.15
2022-12-18T23:11:42.814Z,93.98
2022-12-18T23:17:14.317Z,94.42
2022-12-18T23:20:02.500Z,94.73
2022-12-18T23:25:41.270Z,94.08
2022-12-18T23:34:04.817Z,93.74
2022-12-18T23:39:34.402Z,93.54
2022-12-18T23:45:09.383Z,94.54
2022-12-18T23:47:57.178Z,94.39
2022-12-18T23:53:46.942Z,94.22
2022-12-18T23:56:36.180Z,94.14
